sensor_id;sensor_type;location;lat;lon;timestamp;pressure;altitude;pressure_sealevel;temperature;humidity
48796;BME280;34607;48.520;-1.330;2023-06-19T07:39:51;99850.69;;;19.71;100.00
48796;BME280;34607;48.520;-1.330;2023-06-19T07:42:19;99854.53;;;19.59;100.00
48796;BME280;34607;48.520;-1.330;2023-06-19T07:44:46;99862.25;;;19.34;100.00
48796;BME280;34607;48.520;-1.330;2023-06-19T07:47:14;99857.41;;;19.19;100.00
48796;BME280;34607;48.520;-1.330;2023-06-19T07:49:42;99859.91;;;19.23;100.00
48796;BME280;34607;48.520;-1.330;2023-06-19T07:52:09;99867.50;;;19.34;100.00
48796;BME280;34607;48.520;-1.330;2023-06-19T07:54:36;99853.94;;;19.18;100.00
48796;BME280;34607;48.520;-1.330;2023-06-19T07:57:05;99874.91;;;19.51;100.00
48796;BME280;34607;48.520;-1.330;2023-06-19T07:59:32;99851.22;;;19.84;100.00
48796;BME280;34607;48.520;-1.330;2023-06-19T08:01:59;99863.22;;;20.49;100.00
48796;BME280;34607;48.520;-1.330;2023-06-19T08:04:27;99855.69;;;20.92;98.13
48796;BME280;34607;48.520;-1.330;2023-06-19T08:06:54;99857.19;;;21.24;96.64
48796;BME280;34607;48.520;-1.330;2023-06-19T08:09:21;99838.53;;;21.56;95.71
48796;BME280;34607;48.520;-1.330;2023-06-19T08:11:48;99846.81;;;21.45;92.92
48796;BME280;34607;48.520;-1.330;2023-06-19T08:14:16;99844.88;;;21.01;93.98
48796;BME280;34607;48.520;-1.330;2023-06-19T08:16:44;99843.03;;;21.03;95.11
48796;BME280;34607;48.520;-1.330;2023-06-19T08:19:12;99840.59;;;21.22;94.54
48796;BME280;34607;48.520;-1.330;2023-06-19T08:21:39;99842.84;;;21.33;94.39
48796;BME280;34607;48.520;-1.330;2023-06-19T08:24:06;99836.78;;;21.31;93.06
48796;BME280;34607;48.520;-1.330;2023-06-19T08:26:33;99839.63;;;21.25;93.74
48796;BME280;34607;48.520;-1.330;2023-06-19T08:29:00;99817.84;;;21.20;93.46
48796;BME280;34607;48.520;-1.330;2023-06-19T08:31:28;99837.56;;;21.33;92.80
48796;BME280;34607;48.520;-1.330;2023-06-19T08:33:56;99836.13;;;21.24;92.67
48796;BME280;34607;48.520;-1.330;2023-06-19T08:36:23;99840.09;;;21.36;92.27
48796;BME280;34607;48.520;-1.330;2023-06-19T08:38:50;99835.16;;;21.52;92.37
48796;BME280;34607;48.520;-1.330;2023-06-19T08:41:18;99829.03;;;21.75;92.37
48796;BME280;34607;48.520;-1.330;2023-06-19T08:43:46;99818.13;;;21.84;91.14
48796;BME280;34607;48.520;-1.330;2023-06-19T08:46:15;99830.88;;;21.73;91.43
48796;BME280;34607;48.520;-1.330;2023-06-19T08:48:45;99820.59;;;21.65;92.29
48796;BME280;34607;48.520;-1.330;2023-06-19T08:51:12;99819.53;;;21.47;92.64
48796;BME280;34607;48.520;-1.330;2023-06-19T08:53:45;99836.88;;;21.28;91.95
48796;BME280;34607;48.520;-1.330;2023-06-19T08:56:12;99839.56;;;21.51;91.96
48796;BME280;34607;48.520;-1.330;2023-06-19T08:58:39;99838.53;;;21.56;91.73
48796;BME280;34607;48.520;-1.330;2023-06-19T09:01:06;99834.63;;;21.89;91.41
48796;BME280;34607;48.520;-1.330;2023-06-19T09:03:34;99833.28;;;22.01;89.53
48796;BME280;34607;48.520;-1.330;2023-06-19T09:06:06;99834.22;;;22.00;90.59
48796;BME280;34607;48.520;-1.330;2023-06-19T09:08:34;99840.81;;;21.88;90.66
48796;BME280;34607;48.520;-1.330;2023-06-19T09:11:02;99846.22;;;21.85;90.38
48796;BME280;34607;48.520;-1.330;2023-06-19T09:13:31;99840.38;;;21.77;90.91
48796;BME280;34607;48.520;-1.330;2023-06-19T09:16:02;99840.63;;;21.47;90.43
48796;BME280;34607;48.520;-1.330;2023-06-19T09:18:32;99838.16;;;21.41;91.45
48796;BME280;34607;48.520;-1.330;2023-06-19T09:21:16;99826.44;;;21.25;91.89
48796;BME280;34607;48.520;-1.330;2023-06-19T09:23:45;99838.06;;;21.44;90.99
48796;BME280;34607;48.520;-1.330;2023-06-19T09:26:14;99829.53;;;21.12;90.02
48796;BME280;34607;48.520;-1.330;2023-06-19T09:28:41;99835.44;;;21.19;91.93
48796;BME280;34607;48.520;-1.330;2023-06-19T09:31:09;99841.50;;;21.46;91.50
48796;BME280;34607;48.520;-1.330;2023-06-19T09:33:37;99842.38;;;21.45;90.91
48796;BME280;34607;48.520;-1.330;2023-06-19T09:36:05;99813.81;;;21.35;90.29
48796;BME280;34607;48.520;-1.330;2023-06-19T09:38:35;99840.84;;;21.65;nan
48796;BME280;34607;48.520;-1.330;2023-06-19T09:41:05;99841.63;;;21.67;89.40
48796;BME280;34607;48.520;-1.330;2023-06-19T09:43:36;99840.59;;;21.71;89.86
48796;BME280;34607;48.520;-1.330;2023-06-19T09:46:04;99844.69;;;21.80;88.72
48796;BME280;34607;48.520;-1.330;2023-06-19T09:48:33;99843.06;;;21.76;89.35
48796;BME280;34607;48.520;-1.330;2023-06-19T09:51:10;99839.56;;;21.75;88.72
48796;BME280;34607;48.520;-1.330;2023-06-19T09:53:43;99844.78;;;21.77;89.36
48796;BME280;34607;48.520;-1.330;2023-06-19T09:56:11;99844.16;;;21.94;89.27
48796;BME280;34607;48.520;-1.330;2023-06-19T09:58:39;99838.31;;;22.07;87.86
48796;BME280;34607;48.520;-1.330;2023-06-19T10:01:07;99823.00;;;21.95;87.45
48796;BME280;34607;48.520;-1.330;2023-06-19T10:03:35;99824.47;;;22.02;87.50
48796;BME280;34607;48.520;-1.330;2023-06-19T10:06:03;99828.78;;;21.81;87.34
48796;BME280;34607;48.520;-1.330;2023-06-19T10:08:31;99846.91;;;21.67;87.67
48796;BME280;34607;48.520;-1.330;2023-06-19T10:11:00;99842.16;;;21.77;87.82
48796;BME280;34607;48.520;-1.330;2023-06-19T10:13:32;99838.56;;;22.01;88.84
48796;BME280;34607;48.520;-1.330;2023-06-19T10:16:00;99847.19;;;22.29;86.77
48796;BME280;34607;48.520;-1.330;2023-06-19T10:18:27;99844.56;;;22.27;86.53
48796;BME280;34607;48.520;-1.330;2023-06-19T10:20:55;99837.88;;;21.96;85.52
48796;BME280;34607;48.520;-1.330;2023-06-19T10:23:23;99839.41;;;21.80;86.81
48796;BME280;34607;48.520;-1.330;2023-06-19T10:25:56;99834.28;;;21.75;88.29
48796;BME280;34607;48.520;-1.330;2023-06-19T10:28:27;99825.09;;;21.63;87.25
48796;BME280;34607;48.520;-1.330;2023-06-19T10:30:54;99831.19;;;21.64;87.88
48796;BME280;34607;48.520;-1.330;2023-06-19T10:33:22;99828.56;;;21.64;87.61
48796;BME280;34607;48.520;-1.330;2023-06-19T10:35:50;99812.28;;;21.76;88.05
48796;BME280;34607;48.520;-1.330;2023-06-19T10:38:17;99807.03;;;21.98;87.14
48796;BME280;34607;48.520;-1.330;2023-06-19T10:40:45;99827.41;;;22.17;86.48
48796;BME280;34607;48.520;-1.330;2023-06-19T10:43:19;99812.31;;;22.20;86.07
48796;BME280;34607;48.520;-1.330;2023-06-19T10:45:48;99804.59;;;22.38;85.70
48796;BME280;34607;48.520;-1.330;2023-06-19T10:48:18;99806.94;;;22.46;85.61
48796;BME280;34607;48.520;-1.330;2023-06-19T10:50:47;99793.16;;;22.59;85.26
48796;BME280;34607;48.520;-1.330;2023-06-19T10:53:23;99789.13;;;22.51;83.44
48796;BME280;34607;48.520;-1.330;2023-06-19T10:55:54;99807.53;;;22.52;84.32
48796;BME280;34607;48.520;-1.330;2023-06-19T10:58:22;99797.28;;;22.44;84.15
48796;BME280;34607;48.520;-1.330;2023-06-19T11:00:51;99785.16;;;22.18;85.81
48796;BME280;34607;48.520;-1.330;2023-06-19T11:03:18;99792.94;;;22.43;85.69
48796;BME280;34607;48.520;-1.330;2023-06-19T11:05:46;99798.44;;;22.59;84.72
48796;BME280;34607;48.520;-1.330;2023-06-19T11:08:18;99787.63;;;22.66;83.83
48796;BME280;34607;48.520;-1.330;2023-06-19T11:10:45;99785.34;;;22.56;84.89
48796;BME280;34607;48.520;-1.330;2023-06-19T11:13:14;99786.69;;;23.08;83.58
48796;BME280;34607;48.520;-1.330;2023-06-19T11:15:42;99788.25;;;23.32;82.57
48796;BME280;34607;48.520;-1.330;2023-06-19T11:18:11;99763.31;;;23.38;82.71
48796;BME280;34607;48.520;-1.330;2023-06-19T11:20:45;99774.81;;;24.48;82.16
48796;BME280;34607;48.520;-1.330;2023-06-19T11:23:13;99758.00;;;25.17;79.10
48796;BME280;34607;48.520;-1.330;2023-06-19T11:25:41;99762.19;;;25.71;76.96
48796;BME280;34607;48.520;-1.330;2023-06-19T11:28:12;99745.16;;;25.43;76.44
48796;BME280;34607;48.520;-1.330;2023-06-19T11:30:40;99752.13;;;24.95;78.51
48796;BME280;34607;48.520;-1.330;2023-06-19T11:33:20;99757.75;;;24.36;78.32
48796;BME280;34607;48.520;-1.330;2023-06-19T11:35:49;99757.75;;;23.63;80.38
48796;BME280;34607;48.520;-1.330;2023-06-19T11:38:18;99759.09;;;23.72;81.10
48796;BME280;34607;48.520;-1.330;2023-06-19T11:40:46;99760.34;;;23.65;80.41
48796;BME280;34607;48.520;-1.330;2023-06-19T11:43:23;99749.38;;;23.72;78.58
48796;BME280;34607;48.520;-1.330;2023-06-19T11:45:53;99740.34;;;23.77;79.32
48796;BME280;34607;48.520;-1.330;2023-06-19T11:48:26;99735.19;;;24.29;78.20
48796;BME280;34607;48.520;-1.330;2023-06-19T11:50:53;99740.94;;;24.37;78.78
48796;BME280;34607;48.520;-1.330;2023-06-19T11:53:21;99710.41;;;23.95;77.76
48796;BME280;34607;48.520;-1.330;2023-06-19T11:55:48;99728.41;;;24.76;77.38
48796;BME280;34607;48.520;-1.330;2023-06-19T11:58:15;99727.25;;;24.81;75.77
48796;BME280;34607;48.520;-1.330;2023-06-19T12:00:43;99722.91;;;24.63;76.66
48796;BME280;34607;48.520;-1.330;2023-06-19T12:03:10;99717.16;;;24.55;75.64
48796;BME280;34607;48.520;-1.330;2023-06-19T12:05:39;99728.09;;;24.29;77.43
48796;BME280;34607;48.520;-1.330;2023-06-19T12:08:06;99719.88;;;24.18;76.95
48796;BME280;34607;48.520;-1.330;2023-06-19T12:10:33;99705.16;;;24.30;77.25
48796;BME280;34607;48.520;-1.330;2023-06-19T12:13:01;99702.69;;;24.78;77.02
48796;BME280;34607;48.520;-1.330;2023-06-19T12:15:29;99699.84;;;24.98;75.54
48796;BME280;34607;48.520;-1.330;2023-06-19T12:17:57;99703.22;;;25.18;75.17
48796;BME280;34607;48.520;-1.330;2023-06-19T12:20:24;99706.69;;;25.52;74.82
48796;BME280;34607;48.520;-1.330;2023-06-19T12:22:53;99689.13;;;25.49;73.22
48796;BME280;34607;48.520;-1.330;2023-06-19T12:25:20;99686.47;;;25.65;72.95
48796;BME280;34607;48.520;-1.330;2023-06-19T12:27:47;99677.91;;;25.76;73.26
48796;BME280;34607;48.520;-1.330;2023-06-19T12:30:15;99664.97;;;25.86;72.92
48796;BME280;34607;48.520;-1.330;2023-06-19T12:32:42;99671.06;;;25.88;72.60
48796;BME280;34607;48.520;-1.330;2023-06-19T12:35:09;99659.59;;;26.32;72.15
48796;BME280;34607;48.520;-1.330;2023-06-19T12:37:36;99674.47;;;26.94;72.15
48796;BME280;34607;48.520;-1.330;2023-06-19T12:40:06;99672.41;;;26.84;70.81
48796;BME280;34607;48.520;-1.330;2023-06-19T12:42:36;99660.25;;;26.66;71.14
48796;BME280;34607;48.520;-1.330;2023-06-19T12:45:04;99668.88;;;26.69;70.98
48796;BME280;34607;48.520;-1.330;2023-06-19T12:47:32;99661.44;;;27.18;70.77
48796;BME280;34607;48.520;-1.330;2023-06-19T12:49:59;99656.91;;;27.20;69.23
48796;BME280;34607;48.520;-1.330;2023-06-19T12:52:26;99651.09;;;25.50;71.47
48796;BME280;34607;48.520;-1.330;2023-06-19T12:54:53;99653.13;;;25.29;72.53
48796;BME280;34607;48.520;-1.330;2023-06-19T12:57:22;99660.06;;;25.64;73.06
48796;BME280;34607;48.520;-1.330;2023-06-19T12:59:49;99661.00;;;25.63;73.37
48796;BME280;34607;48.520;-1.330;2023-06-19T13:02:16;99657.19;;;25.83;73.05
48796;BME280;34607;48.520;-1.330;2023-06-19T13:04:43;99632.53;;;25.50;72.60
48796;BME280;34607;48.520;-1.330;2023-06-19T13:07:10;99653.63;;;26.14;72.24
48796;BME280;34607;48.520;-1.330;2023-06-19T13:09:38;99642.56;;;26.50;71.77
48796;BME280;34607;48.520;-1.330;2023-06-19T13:12:06;99644.56;;;26.61;71.25
48796;BME280;34607;48.520;-1.330;2023-06-19T13:14:34;99639.66;;;26.69;71.64
48796;BME280;34607;48.520;-1.330;2023-06-19T13:17:03;99643.38;;;26.96;69.65
48796;BME280;34607;48.520;-1.330;2023-06-19T13:19:30;99642.69;;;26.92;70.61
48796;BME280;34607;48.520;-1.330;2023-06-19T13:21:57;99643.78;;;27.31;68.89
48796;BME280;34607;48.520;-1.330;2023-06-19T13:24:24;99624.34;;;27.43;67.70
48796;BME280;34607;48.520;-1.330;2023-06-19T13:26:53;99637.03;;;28.07;66.91
48796;BME280;34607;48.520;-1.330;2023-06-19T13:29:20;99648.44;;;28.73;66.21
48796;BME280;34607;48.520;-1.330;2023-06-19T13:31:48;99642.16;;;28.49;64.71
48796;BME280;34607;48.520;-1.330;2023-06-19T13:34:15;99620.91;;;27.56;65.83
48796;BME280;34607;48.520;-1.330;2023-06-19T13:36:44;99644.50;;;27.06;67.03
48796;BME280;34607;48.520;-1.330;2023-06-19T13:39:11;99646.84;;;26.82;67.30
48796;BME280;34607;48.520;-1.330;2023-06-19T13:41:38;99639.50;;;26.13;67.22
48796;BME280;34607;48.520;-1.330;2023-06-19T13:44:05;99636.25;;;25.78;68.20
48796;BME280;34607;48.520;-1.330;2023-06-19T13:46:32;99637.56;;;25.71;67.67
48796;BME280;34607;48.520;-1.330;2023-06-19T13:49:00;99642.47;;;26.38;67.62
48796;BME280;34607;48.520;-1.330;2023-06-19T13:51:27;99626.69;;;27.21;67.22
48796;BME280;34607;48.520;-1.330;2023-06-19T13:53:55;99628.47;;;27.62;64.58
48796;BME280;34607;48.520;-1.330;2023-06-19T13:56:22;99611.03;;;27.31;64.87
48796;BME280;34607;48.520;-1.330;2023-06-19T13:58:49;99622.53;;;27.17;64.85
48796;BME280;34607;48.520;-1.330;2023-06-19T14:01:16;99623.41;;;27.44;64.71
48796;BME280;34607;48.520;-1.330;2023-06-19T14:03:43;99623.53;;;26.72;66.04
48796;BME280;34607;48.520;-1.330;2023-06-19T14:06:12;99616.22;;;26.76;66.49
48796;BME280;34607;48.520;-1.330;2023-06-19T14:08:39;99615.13;;;27.07;66.17
48796;BME280;34607;48.520;-1.330;2023-06-19T14:11:06;99599.16;;;26.51;65.94
48796;BME280;34607;48.520;-1.330;2023-06-19T14:13:33;99602.50;;;25.96;67.28
48796;BME280;34607;48.520;-1.330;2023-06-19T14:16:01;99601.75;;;25.78;66.91
48796;BME280;34607;48.520;-1.330;2023-06-19T14:18:28;99609.91;;;25.29;67.81
48796;BME280;34607;48.520;-1.330;2023-06-19T14:20:55;99598.25;;;25.77;66.48
48796;BME280;34607;48.520;-1.330;2023-06-19T14:23:23;99592.31;;;26.33;66.29
48796;BME280;34607;48.520;-1.330;2023-06-19T14:25:50;99590.97;;;26.83;64.78
48796;BME280;34607;48.520;-1.330;2023-06-19T14:28:17;99580.16;;;27.01;63.46
48796;BME280;34607;48.520;-1.330;2023-06-19T14:30:44;99589.03;;;27.41;64.39
48796;BME280;34607;48.520;-1.330;2023-06-19T14:33:12;99587.16;;;27.02;64.31
48796;BME280;34607;48.520;-1.330;2023-06-19T14:35:41;99589.09;;;27.13;65.73
48796;BME280;34607;48.520;-1.330;2023-06-19T14:38:11;99574.84;;;27.01;65.24
48796;BME280;34607;48.520;-1.330;2023-06-19T14:40:40;99575.13;;;27.23;64.53
48796;BME280;34607;48.520;-1.330;2023-06-19T14:43:07;99563.53;;;27.24;63.90
48796;BME280;34607;48.520;-1.330;2023-06-19T14:45:35;99567.03;;;27.39;63.39
48796;BME280;34607;48.520;-1.330;2023-06-19T14:48:03;99562.47;;;27.41;63.17
48796;BME280;34607;48.520;-1.330;2023-06-19T14:50:30;99570.44;;;27.81;62.92
48796;BME280;34607;48.520;-1.330;2023-06-19T14:52:59;99540.25;;;27.95;63.55
48796;BME280;34607;48.520;-1.330;2023-06-19T14:55:26;99574.38;;;27.89;63.82
48796;BME280;34607;48.520;-1.330;2023-06-19T14:57:54;99568.81;;;27.12;65.53
48796;BME280;34607;48.520;-1.330;2023-06-19T15:00:21;99584.44;;;26.60;66.69
48796;BME280;34607;48.520;-1.330;2023-06-19T15:02:48;99576.66;;;26.14;68.02
48796;BME280;34607;48.520;-1.330;2023-06-19T15:05:15;99576.66;;;26.00;69.17
48796;BME280;34607;48.520;-1.330;2023-06-19T15:07:42;99567.69;;;25.86;69.39
48796;BME280;34607;48.520;-1.330;2023-06-19T15:10:10;99574.84;;;26.00;69.40
48796;BME280;34607;48.520;-1.330;2023-06-19T15:12:37;99567.31;;;25.92;70.57
48796;BME280;34607;48.520;-1.330;2023-06-19T15:15:07;99564.28;;;25.84;71.02
48796;BME280;34607;48.520;-1.330;2023-06-19T15:17:34;99575.00;;;25.67;71.43
48796;BME280;34607;48.520;-1.330;2023-06-19T15:20:01;99559.41;;;25.62;71.37
48796;BME280;34607;48.520;-1.330;2023-06-19T15:22:28;99564.81;;;25.75;71.49
48796;BME280;34607;48.520;-1.330;2023-06-19T15:24:55;99553.22;;;25.61;71.34
48796;BME280;34607;48.520;-1.330;2023-06-19T15:27:22;99566.84;;;25.55;71.75
48796;BME280;34607;48.520;-1.330;2023-06-19T15:29:49;99557.91;;;25.42;72.40
48796;BME280;34607;48.520;-1.330;2023-06-19T15:32:18;99570.56;;;25.37;73.01
48796;BME280;34607;48.520;-1.330;2023-06-19T15:34:45;99569.88;;;25.33;72.82
48796;BME280;34607;48.520;-1.330;2023-06-19T15:37:12;99573.31;;;25.19;73.34
48796;BME280;34607;48.520;-1.330;2023-06-19T15:39:39;99566.31;;;25.02;74.26
48796;BME280;34607;48.520;-1.330;2023-06-19T15:42:06;99555.34;;;24.93;74.38
48796;BME280;34607;48.520;-1.330;2023-06-19T15:44:34;99561.00;;;25.02;75.50
48796;BME280;34607;48.520;-1.330;2023-06-19T15:47:01;99557.22;;;25.07;74.92
48796;BME280;34607;48.520;-1.330;2023-06-19T15:49:29;99550.47;;;25.17;74.55
48796;BME280;34607;48.520;-1.330;2023-06-19T15:51:56;99553.81;;;25.04;73.84
48796;BME280;34607;48.520;-1.330;2023-06-19T15:54:23;99553.81;;;25.04;73.25
48796;BME280;34607;48.520;-1.330;2023-06-19T15:56:50;99542.88;;;24.95;72.83
48796;BME280;34607;48.520;-1.330;2023-06-19T15:59:17;99543.06;;;25.08;72.32
48796;BME280;34607;48.520;-1.330;2023-06-19T16:01:45;99540.66;;;25.35;71.85
48796;BME280;34607;48.520;-1.330;2023-06-19T16:04:12;99538.00;;;25.35;72.19
48796;BME280;34607;48.520;-1.330;2023-06-19T16:06:41;99537.63;;;25.41;71.73
48796;BME280;34607;48.520;-1.330;2023-06-19T16:09:10;99537.81;;;25.38;71.63
48796;BME280;34607;48.520;-1.330;2023-06-19T16:11:37;99533.81;;;25.61;71.15
48796;BME280;34607;48.520;-1.330;2023-06-19T16:14:04;99527.09;;;26.00;70.42
48796;BME280;34607;48.520;-1.330;2023-06-19T16:16:31;99524.44;;;26.00;70.97
48796;BME280;34607;48.520;-1.330;2023-06-19T16:18:58;99517.66;;;25.80;71.40
48796;BME280;34607;48.520;-1.330;2023-06-19T16:21:25;99513.50;;;25.46;71.71
48796;BME280;34607;48.520;-1.330;2023-06-19T16:23:55;99515.50;;;25.10;73.02
48796;BME280;34607;48.520;-1.330;2023-06-19T16:26:22;99476.88;;;24.60;74.06
48796;BME280;34607;48.520;-1.330;2023-06-19T16:28:49;99512.28;;;24.57;74.90
48796;BME280;34607;48.520;-1.330;2023-06-19T16:31:16;99516.94;;;24.52;75.20
48796;BME280;34607;48.520;-1.330;2023-06-19T16:33:44;99519.09;;;24.45;75.16
48796;BME280;34607;48.520;-1.330;2023-06-19T16:36:11;99516.03;;;24.37;75.23
48796;BME280;34607;48.520;-1.330;2023-06-19T16:38:38;99499.25;;;24.37;75.21
48796;BME280;34607;48.520;-1.330;2023-06-19T16:41:07;99507.13;;;24.38;74.82
48796;BME280;34607;48.520;-1.330;2023-06-19T16:43:34;99506.72;;;24.30;75.31
48796;BME280;34607;48.520;-1.330;2023-06-19T16:46:01;99480.41;;;24.27;75.56
48796;BME280;34607;48.520;-1.330;2023-06-19T16:48:28;99490.25;;;24.41;75.65
48796;BME280;34607;48.520;-1.330;2023-06-19T16:50:55;99480.34;;;24.44;75.83
48796;BME280;34607;48.520;-1.330;2023-06-19T16:53:22;99480.72;;;24.54;75.90
48796;BME280;34607;48.520;-1.330;2023-06-19T16:55:49;99478.28;;;24.49;76.14
48796;BME280;34607;48.520;-1.330;2023-06-19T16:58:22;99487.59;;;24.41;76.50
48796;BME280;34607;48.520;-1.330;2023-06-19T17:00:50;99502.25;;;24.30;77.56
48796;BME280;34607;48.520;-1.330;2023-06-19T17:03:17;99501.75;;;24.24;77.63
48796;BME280;34607;48.520;-1.330;2023-06-19T17:05:44;99479.38;;;24.14;77.83
48796;BME280;34607;48.520;-1.330;2023-06-19T17:08:11;99493.47;;;24.30;77.77
48796;BME280;34607;48.520;-1.330;2023-06-19T17:10:38;99482.91;;;24.30;77.80
48796;BME280;34607;48.520;-1.330;2023-06-19T17:13:05;99480.97;;;24.16;77.93
48796;BME280;34607;48.520;-1.330;2023-06-19T17:15:34;99487.00;;;24.36;78.06
48796;BME280;34607;48.520;-1.330;2023-06-19T17:18:01;99477.78;;;24.27;78.00
48796;BME280;34607;48.520;-1.330;2023-06-19T17:20:30;99488.78;;;24.35;78.26
48796;BME280;34607;48.520;-1.330;2023-06-19T17:22:57;99494.16;;;24.34;77.82
48796;BME280;34607;48.520;-1.330;2023-06-19T17:25:24;99481.25;;;24.11;77.85
48796;BME280;34607;48.520;-1.330;2023-06-19T17:27:52;99499.25;;;24.21;77.19
48796;BME280;34607;48.520;-1.330;2023-06-19T17:30:19;99483.28;;;24.06;76.71
48796;BME280;34607;48.520;-1.330;2023-06-19T17:32:48;99497.03;;;24.13;76.63
48796;BME280;34607;48.520;-1.330;2023-06-19T17:35:15;99511.88;;;24.16;76.36
48796;BME280;34607;48.520;-1.330;2023-06-19T17:37:43;99514.59;;;24.14;76.10
48796;BME280;34607;48.520;-1.330;2023-06-19T17:40:11;99518.81;;;24.18;75.67
48796;BME280;34607;48.520;-1.330;2023-06-19T17:42:39;99509.00;;;24.20;75.28
48796;BME280;34607;48.520;-1.330;2023-06-19T17:45:07;99498.50;;;24.19;74.98
48796;BME280;34607;48.520;-1.330;2023-06-19T17:47:34;99503.31;;;24.10;75.24
48796;BME280;34607;48.520;-1.330;2023-06-19T17:50:03;99505.22;;;24.08;75.09
48796;BME280;34607;48.520;-1.330;2023-06-19T17:52:30;99504.38;;;24.08;75.93
48796;BME280;34607;48.520;-1.330;2023-06-19T17:54:58;99498.88;;;24.11;76.12
48796;BME280;34607;48.520;-1.330;2023-06-19T17:57:25;99503.84;;;24.01;75.89
48796;BME280;34607;48.520;-1.330;2023-06-19T17:59:52;99497.25;;;23.92;76.18
48796;BME280;34607;48.520;-1.330;2023-06-19T18:02:20;99489.38;;;23.91;75.67
48796;BME280;34607;48.520;-1.330;2023-06-19T18:04:47;99485.09;;;23.88;75.49
48796;BME280;34607;48.520;-1.330;2023-06-19T18:07:15;99485.34;;;23.84;75.11
48796;BME280;34607;48.520;-1.330;2023-06-19T18:09:43;99485.34;;;23.84;75.28
48796;BME280;34607;48.520;-1.330;2023-06-19T18:12:13;99492.41;;;23.83;75.21
48796;BME280;34607;48.520;-1.330;2023-06-19T18:14:41;99494.56;;;23.75;75.17
48796;BME280;34607;48.520;-1.330;2023-06-19T18:17:09;99491.78;;;23.78;75.54
48796;BME280;34607;48.520;-1.330;2023-06-19T18:19:37;99487.34;;;23.79;75.62
48796;BME280;34607;48.520;-1.330;2023-06-19T18:22:04;99484.94;;;23.74;75.62
48796;BME280;34607;48.520;-1.330;2023-06-19T18:24:33;99487.91;;;23.68;75.69
48796;BME280;34607;48.520;-1.330;2023-06-19T18:27:00;99487.47;;;23.60;75.97
48796;BME280;34607;48.520;-1.330;2023-06-19T18:29:27;99471.97;;;23.52;76.37
48796;BME280;34607;48.520;-1.330;2023-06-19T18:31:56;99471.22;;;23.50;76.77
48796;BME280;34607;48.520;-1.330;2023-06-19T18:34:23;99475.47;;;23.52;76.37
48796;BME280;34607;48.520;-1.330;2023-06-19T18:36:50;99482.84;;;23.46;77.02
48796;BME280;34607;48.520;-1.330;2023-06-19T18:39:17;99473.88;;;23.32;77.11
48796;BME280;34607;48.520;-1.330;2023-06-19T18:41:46;99477.34;;;23.33;77.65
48796;BME280;34607;48.520;-1.330;2023-06-19T18:44:13;99487.00;;;23.34;77.87
48796;BME280;34607;48.520;-1.330;2023-06-19T18:46:41;99486.59;;;23.24;78.53
48796;BME280;34607;48.520;-1.330;2023-06-19T18:49:08;99494.59;;;23.23;78.73
48796;BME280;34607;48.520;-1.330;2023-06-19T18:51:35;99486.88;;;23.18;79.00
48796;BME280;34607;48.520;-1.330;2023-06-19T18:54:02;99492.09;;;23.19;79.41
48796;BME280;34607;48.520;-1.330;2023-06-19T18:56:29;99481.06;;;23.11;79.62
48796;BME280;34607;48.520;-1.330;2023-06-19T18:58:58;99483.75;;;23.10;80.20
48796;BME280;34607;48.520;-1.330;2023-06-19T19:01:25;99484.06;;;23.04;80.55
48796;BME280;34607;48.520;-1.330;2023-06-19T19:03:52;99483.09;;;23.05;80.77
48796;BME280;34607;48.520;-1.330;2023-06-19T19:06:19;99478.66;;;23.07;81.16
48796;BME280;34607;48.520;-1.330;2023-06-19T19:08:46;99475.78;;;23.11;81.16
48796;BME280;34607;48.520;-1.330;2023-06-19T19:11:13;99467.00;;;23.11;81.49
48796;BME280;34607;48.520;-1.330;2023-06-19T19:13:40;99468.22;;;23.04;81.75
48796;BME280;34607;48.520;-1.330;2023-06-19T19:16:11;99475.50;;;22.98;81.77
48796;BME280;34607;48.520;-1.330;2023-06-19T19:18:38;99471.38;;;22.93;82.30
48796;BME280;34607;48.520;-1.330;2023-06-19T19:21:05;99482.22;;;22.87;82.85
48796;BME280;34607;48.520;-1.330;2023-06-19T19:23:32;99481.38;;;22.86;83.10
48796;BME280;34607;48.520;-1.330;2023-06-19T19:25:59;99486.75;;;22.85;83.63
48796;BME280;34607;48.520;-1.330;2023-06-19T19:28:26;99480.13;;;22.76;84.12
48796;BME280;34607;48.520;-1.330;2023-06-19T19:30:53;99489.22;;;22.69;84.64
48796;BME280;34607;48.520;-1.330;2023-06-19T19:33:21;99484.97;;;22.66;84.80
48796;BME280;34607;48.520;-1.330;2023-06-19T19:35:48;99484.97;;;22.66;85.15
48796;BME280;34607;48.520;-1.330;2023-06-19T19:38:16;99481.50;;;22.66;85.48
48796;BME280;34607;48.520;-1.330;2023-06-19T19:40:45;99469.84;;;22.70;85.42
48796;BME280;34607;48.520;-1.330;2023-06-19T19:43:12;99474.41;;;22.66;85.64
48796;BME280;34607;48.520;-1.330;2023-06-19T19:45:39;99481.63;;;22.62;86.05
48796;BME280;34607;48.520;-1.330;2023-06-19T19:48:06;99465.28;;;22.54;86.36
48796;BME280;34607;48.520;-1.330;2023-06-19T19:50:35;99468.06;;;22.51;86.50
48796;BME280;34607;48.520;-1.330;2023-06-19T19:53:02;99460.47;;;22.45;86.84
48796;BME280;34607;48.520;-1.330;2023-06-19T19:55:29;99459.84;;;22.40;87.11
48796;BME280;34607;48.520;-1.330;2023-06-19T19:57:56;99460.66;;;22.40;87.59
48796;BME280;34607;48.520;-1.330;2023-06-19T20:00:26;99459.91;;;22.38;87.59
48796;BME280;34607;48.520;-1.330;2023-06-19T20:02:53;99454.06;;;22.32;88.02
48796;BME280;34607;48.520;-1.330;2023-06-19T20:05:20;99449.09;;;22.24;88.24
48796;BME280;34607;48.520;-1.330;2023-06-19T20:07:49;99452.47;;;22.28;88.28
48796;BME280;34607;48.520;-1.330;2023-06-19T20:10:15;99443.88;;;22.22;88.79
48796;BME280;34607;48.520;-1.330;2023-06-19T20:12:43;99452.88;;;22.18;88.80
48796;BME280;34607;48.520;-1.330;2023-06-19T20:15:10;99444.13;;;22.18;89.14
48796;BME280;34607;48.520;-1.330;2023-06-19T20:17:37;99456.59;;;22.14;89.43
48796;BME280;34607;48.520;-1.330;2023-06-19T20:20:05;99442.53;;;22.14;89.75
48796;BME280;34607;48.520;-1.330;2023-06-19T20:22:32;99456.72;;;22.11;89.93
48796;BME280;34607;48.520;-1.330;2023-06-19T20:25:00;99467.53;;;22.05;89.95
48796;BME280;34607;48.520;-1.330;2023-06-19T20:29:54;99472.84;;;21.84;90.98
48796;BME280;34607;48.520;-1.330;2023-06-19T20:32:21;99477.19;;;21.85;91.08
48796;BME280;34607;48.520;-1.330;2023-06-19T20:34:48;99479.06;;;21.83;91.15